Atwood, CA

7:36 AM PDT on September 17, 2014 (GMT -0700)
SW Yorba Linda/NW Anaheim Hills | Change Station
CLOSE
Current Station
Personal Weather Station
Location: Yorba Linda, CA
Elevation: 278 ft
Nearby Weather Stations
Active Advisory: Beach Hazard Statement Active Notice: Record Report

Elev 278 ft 33.87 °N, 117.80 °W | Updated 8 seconds ago

Clear
Clear
78.3 °F
Feels Like 80 °F
N
0.0
Wind Variable Wind from South
Gusts 0.0 mph

Today
High -- | Low -- °F
--% Chance of Precip.
Yesterday
High -- | Low -- °F
Precip. -- in
6:36 AM 6:54 PM
Waning Crescent, 35% visible
Pressure 29.72 in
Visibility 10.0 miles
Clouds Clear
Heat Index 80 °F
Dew Point 60 °F
Humidity 53%
Rainfall 0.00 in
Snow Depth 1 in , 0 in , 0 in
UV 0 out of 12
Pollen 6.90 out of 12
Ozone Good
PM2.5 Good
Flu Activity Not available.
METAR KFUL 171353Z 00000KT 10SM CLR 26/16 A2972 RMK AO2 SLP063 T02560161 PNO $

More Conditions Fewer Conditions

Pressure 29.72 in
Visibility 10.0 miles
Clouds Clear
Heat Index 80 °F
Dew Point 60 °F
Humidity 53%
Rainfall 0.00 in
Snow Depth 1 in , 0 in , 0 in
UV 0 out of 12
Pollen 6.90 out of 12
Ozone Good
PM2.5 Good
Flu Activity Not available.
METAR KFUL 171353Z 00000KT 10SM CLR 26/16 A2972 RMK AO2 SLP063 T02560161 PNO $

More Conditions Fewer Conditions

10-Day Weather Forecast

Almanac

Astronomy

Sep. 17, 2014 Rise Set
Actual Time 6:36 AM PDT 6:54 PM PDT
Civil Twilight 6:11 AM PDT 7:19 PM PDT
Nautical Twilight 5:41 AM PDT 7:49 PM PDT
Astronomical Twilight 5:12 AM PDT 8:18 PM PDT
Moon 12:51 AM PDT 2:56 PM PDT
Length of Visible Light 13h 08m
Length of Day
12h 18m
Tomorrow will be 2m 5s shorter.
Waning Crescent, 35% of the Moon is Illuminated
Today
Waning Crescent
Sep 24
New
Oct 1
First Quarter
Oct 8
Full
Oct 15
Last Quarter

Today's Extremes

State Highs State Lows

Community

WunderPhotos

Upload Photos

1,754,057 photos uploaded!

WunderBlogs® & News

By Dr. Jeff Masters
Director of Meteorology, Weather Underground
By Kari Strenfel
Meteorologist, Weather Underground
By Christopher C. Burt
Weather Historian, Weather Underground
September 17, 2014
September 17, 2014
September 17, 2014

Nearby

Air Quality

  Air Quality AQ Index Pollutant
Yesterday Good
PM10
Yesterday Good
OZONE
Current Good
PM2.5
Current Good
OZONE
Wednesday Good
PM10
Wednesday Good
OZONE
Wednesday Good
CO
Wednesday Good
NO2

Snow Depth

Station Depth Elevation
Adin Mountain 1 in 6200 ft
Echo Peak 0 in 7800 ft
Hagan's Meadow 0 in 8000 ft
Monitor Pass 0 in 8350 ft
Leavitt Lake 1 in 9400 ft

Earthquake Activity

City Distance Mag. Time & Date
La Quinta, California 82 miles 2.7 8:59 PM PDT
2014-09-15
Minimum magnitude displayed is 2.5.

Coastal Water Temperatures

Place Temperature
Santa Monica Pier 73.0 °F
Los Angeles, CA 69.1 °F
La Jolla, CA 66.0 °F

Nearby Weather Stations